Time;durP1;ratioP1;P1;durP2;ratioP2;P2;SDS_P1;SDS_P2;PMS_P1;PMS_P2;Temp;Humidity;BMP_temperature;BMP_pressure;BME280_temperature;BME280_humidity;BME280_pressure;Samples;Min_cycle;Max_cycle;Signal;HPM_P1;HPM_P2
2022/05/30 00:01:48;;;;;;;9.70;6.90;;;;;;;11.39;70.47;100025.50;3511011;80;20908;-80
2022/05/30 00:06:39;;;;;;;8.50;7.62;;;;;;;11.39;70.63;100018.98;3450761;80;21061;-79
2022/05/30 00:11:31;;;;;;;7.80;6.45;;;;;;;11.36;70.73;100017.67;3461010;80;21039;-80
2022/05/30 00:16:23;;;;;;;7.53;6.55;;;;;;;11.35;70.73;100010.71;3492127;80;21014;-80
2022/05/30 00:21:21;;;;;;;8.85;6.95;;;;;;;11.36;70.90;100007.26;3467568;80;20983;-80
2022/05/30 00:26:12;;;;;;;9.13;7.45;;;;;;;11.36;70.82;100001.19;3454455;80;20955;-80
2022/05/30 00:31:10;;;;;;;9.28;7.67;;;;;;;11.36;71.04;99996.84;3405197;80;21010;-80
2022/05/30 00:36:01;;;;;;;8.18;6.85;;;;;;;11.35;71.08;99993.80;3457713;80;21645;-80
2022/05/30 00:40:52;;;;;;;9.98;6.67;;;;;;;11.31;71.12;99990.76;3498593;80;21596;-80
2022/05/30 00:45:43;;;;;;;9.75;6.55;;;;;;;11.30;71.20;99992.91;3504156;80;20983;-80
2022/05/30 00:50:37;;;;;;;10.45;6.12;;;;;;;11.33;71.19;99993.37;3436740;79;20979;-80
2022/05/30 00:55:28;;;;;;;7.95;6.12;;;;;;;11.33;71.21;99985.56;3510410;80;20948;-80
2022/05/30 01:00:25;;;;;;;7.67;6.08;;;;;;;11.32;71.29;99978.61;3513444;80;21343;-80
2022/05/30 01:10:26;;;;;;;7.50;6.35;;;;;;;11.30;71.51;99960.83;3500714;80;20964;-80
2022/05/30 01:15:21;;;;;;;8.18;6.08;;;;;;;11.30;71.67;99956.48;3495666;80;21099;-80
2022/05/30 01:20:27;;;;;;;11.10;5.90;;;;;;;11.29;71.67;99948.25;3481975;80;21019;-80
2022/05/30 01:25:51;;;;;;;7.37;6.28;;;;;;;11.29;71.90;99944.35;3504599;79;21772;-80
2022/05/30 01:30:47;;;;;;;7.92;5.70;;;;;;;11.25;71.89;99941.31;3487251;80;21540;-80
2022/05/30 01:35:40;;;;;;;6.35;5.30;;;;;;;11.24;72.34;99931.31;3442393;80;20939;-79
2022/05/30 01:40:33;;;;;;;5.10;4.67;;;;;;;11.22;72.46;99921.78;3424908;80;20873;-80
2022/05/30 01:45:26;;;;;;;6.90;6.00;;;;;;;11.23;72.44;99931.31;3447669;80;20975;-79
2022/05/30 01:50:19;;;;;;;9.53;5.30;;;;;;;11.21;72.57;99918.33;3502633;80;21137;-80
2022/05/30 01:55:11;;;;;;;8.48;6.12;;;;;;;11.22;72.90;99916.58;3481366;80;20967;-80
2022/05/30 02:00:04;;;;;;;7.47;5.45;;;;;;;11.21;72.93;99915.72;3455516;80;20977;-80
2022/05/30 02:05:08;;;;;;;5.22;4.70;;;;;;;11.20;72.85;99920.48;3531816;80;21403;-80
2022/05/30 02:10:00;;;;;;;6.00;5.35;;;;;;;11.18;73.01;99913.55;3496435;80;20968;-80
2022/05/30 02:14:53;;;;;;;6.62;4.83;;;;;;;11.16;73.31;99917.86;3463068;80;20992;-80
2022/05/30 02:19:45;;;;;;;7.40;5.47;;;;;;;11.14;73.47;99932.59;3493036;80;20912;-80
2022/05/30 02:24:39;;;;;;;5.97;4.70;;;;;;;11.13;73.55;99955.59;3463242;80;20881;-80
2022/05/30 02:29:29;;;;;;;5.35;4.87;;;;;;;11.17;73.81;99960.80;3487581;80;21075;-80
2022/05/30 02:39:32;;;;;;;8.20;5.42;;;;;;;11.18;74.03;99963.84;3484541;80;21218;-81
2022/05/30 02:44:29;;;;;;;7.00;5.85;;;;;;;11.21;74.34;99968.17;3478240;80;21050;-80
2022/05/30 02:49:22;;;;;;;12.35;6.05;;;;;;;11.21;74.45;99957.77;3476154;80;20943;-80
2022/05/30 02:54:14;;;;;;;7.55;5.03;;;;;;;11.21;74.62;99952.56;3500402;80;20917;-80
2022/05/30 02:59:15;;;;;;;7.37;5.83;;;;;;;11.19;74.80;99959.06;3433406;80;21280;-81
2022/05/30 03:04:08;;;;;;;5.83;5.20;;;;;;;11.17;74.98;99963.84;3490481;80;21018;-81
2022/05/30 03:09:00;;;;;;;5.53;5.03;;;;;;;11.16;75.21;99952.57;3512681;80;21002;-81
2022/05/30 03:13:56;;;;;;;7.22;6.53;;;;;;;11.16;75.26;99952.98;3457050;81;24238;-81
2022/05/30 03:18:47;;;;;;;5.85;5.25;;;;;;;11.14;75.42;99948.21;3483704;80;20959;-81
2022/05/30 03:23:38;;;;;;;5.65;5.12;;;;;;;11.11;75.69;99949.53;3497227;80;21481;-81
2022/05/30 03:28:33;;;;;;;4.92;4.53;;;;;;;11.11;75.96;99958.63;3449627;80;20899;-81
2022/05/30 03:33:24;;;;;;;7.08;4.62;;;;;;;11.10;76.02;99962.94;3478260;80;20960;-81
2022/05/30 03:38:16;;;;;;;7.22;5.20;;;;;;;11.11;76.26;99961.23;3443491;80;20947;-81
2022/05/30 03:43:25;;;;;;;7.35;5.25;;;;;;;11.05;76.22;99962.95;3310766;84;21037;-81
2022/05/30 03:48:20;;;;;;;6.15;5.55;;;;;;;11.05;76.46;99965.55;3273354;85;20927;-82
2022/05/30 03:53:10;;;;;;;9.90;6.00;;;;;;;11.05;76.66;99964.25;3326830;84;22094;-82
2022/05/30 03:58:07;;;;;;;10.10;6.00;;;;;;;11.11;76.94;99961.23;3347074;84;21139;-81
2022/05/30 04:02:59;;;;;;;9.25;6.15;;;;;;;11.17;77.04;99953.43;3267129;84;21005;-81
2022/05/30 04:07:51;;;;;;;7.00;6.37;;;;;;;11.20;77.05;99940.44;3316341;84;20967;-81
2022/05/30 04:13:07;;;;;;;6.87;6.15;;;;;;;11.18;76.94;99939.57;3347511;84;21465;-81
2022/05/30 04:18:18;;;;;;;7.75;6.95;;;;;;;11.17;76.87;99945.63;3288468;83;21002;-81
2022/05/30 04:23:09;;;;;;;8.63;7.72;;;;;;;11.19;77.25;99941.29;3297482;84;20975;-82
2022/05/30 04:28:08;;;;;;;9.08;7.50;;;;;;;11.23;77.39;99945.63;3303005;83;21508;-82
2022/05/30 04:33:00;;;;;;;8.40;7.15;;;;;;;11.25;77.41;99937.41;3256567;84;21015;-82
2022/05/30 04:37:52;;;;;;;8.90;8.00;;;;;;;11.30;77.44;99940.00;3296930;84;21351;-83
2022/05/30 04:42:47;;;;;;;8.98;7.70;;;;;;;11.33;77.39;99944.78;3309038;84;21497;-83
2022/05/30 04:47:56;;;;;;;8.48;7.58;;;;;;;11.35;77.31;99948.69;3381953;80;21005;-82
2022/05/30 04:52:47;;;;;;;11.03;8.30;;;;;;;11.33;77.32;99952.59;3457982;80;20988;-83
2022/05/30 04:57:55;;;;;;;10.68;8.00;;;;;;;11.31;77.35;99950.42;3368294;83;21608;-81
2022/05/30 05:03:04;;;;;;;8.58;7.78;;;;;;;11.31;77.42;99954.33;3385125;83;21435;-80
2022/05/30 05:08:20;;;;;;;9.63;7.78;;;;;;;11.31;77.54;99949.13;3399613;83;21490;-81
2022/05/30 05:13:30;;;;;;;8.30;7.35;;;;;;;11.34;77.70;99955.64;3391595;83;21003;-81
2022/05/30 05:18:39;;;;;;;8.00;7.37;;;;;;;11.36;77.77;99950.00;3365154;83;21146;-81
2022/05/30 05:23:31;;;;;;;8.35;7.55;;;;;;;11.36;77.66;99940.89;3349529;83;21552;-81
2022/05/30 05:28:24;;;;;;;8.63;7.87;;;;;;;11.36;77.74;99938.73;3365035;83;21064;-80
2022/05/30 05:33:18;;;;;;;7.17;6.37;;;;;;;11.38;77.89;99927.44;3450798;80;20941;-81
2022/05/30 05:38:09;;;;;;;6.60;5.90;;;;;;;11.42;77.64;99929.17;3408560;80;21019;-81
2022/05/30 05:43:12;;;;;;;9.43;6.37;;;;;;;11.47;77.72;99925.73;3500941;80;20983;-81
2022/05/30 05:48:04;;;;;;;5.67;5.12;;;;;;;11.54;77.53;99923.56;3445847;80;21593;-80
2022/05/30 05:52:55;;;;;;;7.05;5.40;;;;;;;11.57;77.51;99917.03;3407799;80;20913;-81
2022/05/30 05:57:48;;;;;;;8.40;6.25;;;;;;;11.60;77.52;99907.92;3469699;80;20968;-81
2022/05/30 06:02:40;;;;;;;6.97;6.33;;;;;;;11.65;77.57;99907.50;3452152;80;21062;-81
2022/05/30 06:07:37;;;;;;;7.00;6.40;;;;;;;11.73;77.45;99907.07;3469759;80;21488;-81
2022/05/30 06:12:42;;;;;;;7.45;6.72;;;;;;;11.87;77.37;99914.84;3492608;79;22119;-81
2022/05/30 06:17:32;;;;;;;7.37;6.72;;;;;;;11.99;77.36;99904.89;3457069;80;20940;-81
2022/05/30 06:22:25;;;;;;;6.97;6.17;;;;;;;12.07;77.34;99903.12;3435044;80;21543;-80
2022/05/30 06:27:19;;;;;;;7.00;6.33;;;;;;;12.05;77.01;99903.56;3441545;80;21028;-81
2022/05/30 06:32:28;;;;;;;5.97;5.42;;;;;;;12.00;77.12;99907.50;3496166;80;20938;-81
2022/05/30 06:37:22;;;;;;;5.78;5.15;;;;;;;11.95;77.12;99913.59;3473494;80;21005;-81
2022/05/30 06:42:14;;;;;;;6.67;5.03;;;;;;;11.90;77.03;99911.39;3465230;80;21416;-81
2022/05/30 06:47:13;;;;;;;5.60;5.10;;;;;;;11.97;77.12;99907.49;3459658;80;20989;-80
2022/05/30 06:52:22;;;;;;;5.20;4.70;;;;;;;11.99;76.98;99910.95;3467276;80;20999;-82
2022/05/30 07:02:23;;;;;;;8.08;4.72;;;;;;;12.09;76.98;99902.70;3466158;80;21426;-81
2022/05/30 07:07:32;;;;;;;5.25;4.75;;;;;;;12.16;76.99;99900.92;3490188;80;20959;-81
2022/05/30 07:12:41;;;;;;;6.20;4.42;;;;;;;12.20;77.06;99907.45;3491744;80;20967;-81
2022/05/30 07:17:35;;;;;;;5.17;4.33;;;;;;;12.19;76.72;99902.23;3488377;80;20932;-81
2022/05/30 07:22:26;;;;;;;7.78;4.72;;;;;;;12.21;76.76;99897.88;3482916;80;21004;-81
2022/05/30 07:27:36;;;;;;;4.85;4.45;;;;;;;12.29;76.89;99897.88;3465991;80;20945;-81
2022/05/30 07:32:46;;;;;;;5.25;4.50;;;;;;;12.35;76.83;99886.12;3521319;80;20981;-82
2022/05/30 07:37:56;;;;;;;4.35;3.95;;;;;;;12.36;76.53;99887.86;3502053;80;20966;-83
2022/05/30 07:42:51;;;;;;;5.70;5.17;;;;;;;12.46;76.58;99892.14;3443138;80;20975;-81
2022/05/30 07:47:44;;;;;;;4.90;4.50;;;;;;;12.54;76.75;99883.87;3454181;80;20997;-79
2022/05/30 07:52:38;;;;;;;4.90;4.35;;;;;;;12.64;76.47;99887.73;3423656;79;20925;-78
2022/05/30 07:57:52;;;;;;;5.62;4.72;;;;;;;12.72;76.16;99885.97;3431988;80;21018;-80
2022/05/30 08:02:45;;;;;;;5.03;4.65;;;;;;;12.84;75.75;99884.60;3480501;80;22668;-75
2022/05/30 08:07:37;;;;;;;13.68;12.37;;;;;;;12.95;75.39;99887.15;3447083;80;20909;-77
2022/05/30 08:12:31;;;;;;;6.83;5.22;;;;;;;13.08;75.74;99884.02;3519924;80;20965;-76
2022/05/30 08:17:22;;;;;;;5.62;5.10;;;;;;;13.31;75.78;99883.44;3453059;80;20943;-79
2022/05/30 08:22:13;;;;;;;5.22;4.83;;;;;;;13.71;75.58;99883.09;3457936;80;20926;-78
2022/05/30 08:27:05;;;;;;;5.50;5.00;;;;;;;13.70;75.10;99887.91;3482738;80;21730;-74
2022/05/30 08:32:08;;;;;;;3.92;3.62;;;;;;;13.94;74.78;99888.55;3450946;80;20959;-81
2022/05/30 08:37:06;;;;;;;4.72;4.28;;;;;;;14.02;73.90;99885.44;3421096;80;20963;-81
2022/05/30 08:42:00;;;;;;;4.03;3.60;;;;;;;14.01;74.07;99886.30;3425262;80;21417;-82
2022/05/30 08:47:19;;;;;;;3.92;3.58;;;;;;;13.92;73.57;99883.34;3464124;80;21011;-77
2022/05/30 08:52:28;;;;;;;3.50;3.20;;;;;;;13.82;74.04;99891.28;3469790;80;21168;-78
2022/05/30 08:57:33;;;;;;;3.08;2.87;;;;;;;13.76;73.47;99883.52;3511278;80;20972;-79
2022/05/30 09:02:45;;;;;;;;;;;;;;;13.79;73.77;99883.05;3509382;80;20984;-81
2022/05/30 09:07:41;;;;;;;3.80;3.08;;;;;;;13.68;73.26;99892.70;3490906;80;20118;-82
2022/05/30 09:13:05;;;;;;;3.75;3.45;;;;;;;13.65;74.13;99891.00;3521330;80;20965;-81
2022/05/30 09:18:08;;;;;;;3.58;3.27;;;;;;;13.64;74.08;99889.26;3515545;80;21545;-78
2022/05/30 09:23:04;;;;;;;3.75;3.50;;;;;;;13.64;74.27;99880.56;3507912;80;32712;-78
2022/05/30 09:27:55;;;;;;;3.22;3.02;;;;;;;13.61;74.68;99890.61;3496332;80;20987;-83
2022/05/30 09:33:14;;;;;;;4.72;4.22;;;;;;;13.47;74.62;99891.17;3504380;80;20988;-81
2022/05/30 09:38:24;;;;;;;4.33;3.62;;;;;;;13.44;74.88;99891.19;3497933;80;20939;-80
2022/05/30 09:43:50;;;;;;;3.35;3.05;;;;;;;13.39;74.64;99896.88;3508346;80;20967;-81
2022/05/30 09:49:02;;;;;;;3.65;3.35;;;;;;;13.37;75.25;99894.72;3527453;80;20905;-80
2022/05/30 09:53:54;;;;;;;2.80;2.60;;;;;;;13.45;75.02;99892.90;3506789;80;20944;-80
2022/05/30 09:59:06;;;;;;;4.05;2.67;;;;;;;13.46;74.96;99899.87;3482618;80;20939;-78
2022/05/30 10:04:36;;;;;;;3.15;2.85;;;;;;;13.59;74.90;99903.24;3482122;80;20948;-79
2022/05/30 10:09:29;;;;;;;3.33;2.77;;;;;;;13.74;74.58;99903.13;3440244;80;21019;-78
2022/05/30 10:14:26;;;;;;;3.22;2.15;;;;;;;14.01;74.18;99901.98;3458988;80;20929;-76
2022/05/30 10:19:31;;;;;;;2.75;2.55;;;;;;;14.18;72.94;99898.33;3463660;80;20936;-81
2022/05/30 10:30:31;;;;;;;3.00;2.80;;;;;;;14.44;72.63;99901.96;3481620;80;21668;-79
2022/05/30 10:35:48;;;;;;;3.40;2.35;;;;;;;14.63;72.71;99906.53;3521654;80;21418;-80
2022/05/30 10:41:09;;;;;;;2.35;2.22;;;;;;;14.77;72.13;99917.72;3467949;80;20959;-80
2022/05/30 10:46:08;;;;;;;2.37;2.17;;;;;;;14.86;72.24;99911.05;3471167;80;20987;-81
2022/05/30 10:51:22;;;;;;;2.40;2.15;;;;;;;15.15;71.89;99918.94;3472104;80;21058;-80
2022/05/30 10:56:21;;;;;;;3.87;2.70;;;;;;;15.41;70.97;99915.91;3491842;80;21634;-77
2022/05/30 11:01:21;;;;;;;2.40;2.10;;;;;;;15.97;71.34;99920.26;3512968;79;22176;-82
2022/05/30 11:06:24;;;;;;;2.27;2.17;;;;;;;16.99;70.00;99925.73;3510178;80;20979;-80
2022/05/30 11:11:36;;;;;;;3.65;2.15;;;;;;;17.52;68.61;99924.05;3495836;80;21444;-77
2022/05/30 11:16:49;;;;;;;2.37;2.17;;;;;;;17.47;67.39;99926.81;3488489;80;20917;-77
2022/05/30 11:22:23;;;;;;;2.33;2.12;;;;;;;17.65;67.09;99925.50;3535449;80;21442;-78
2022/05/30 11:27:36;;;;;;;2.05;1.95;;;;;;;17.68;66.63;99921.91;3503836;80;20947;-79
2022/05/30 11:33:01;;;;;;;2.20;2.10;;;;;;;17.18;67.31;99930.55;3492894;80;20926;-80
2022/05/30 11:38:18;;;;;;;2.05;1.92;;;;;;;17.29;67.67;99925.91;3506613;80;20955;-80
2022/05/30 11:44:05;;;;;;;1.82;1.72;;;;;;;17.36;66.34;99930.13;3502045;80;20931;-77
2022/05/30 11:49:07;;;;;;;2.33;2.05;;;;;;;16.86;67.34;99930.81;3480033;80;20955;-79
2022/05/30 11:54:25;;;;;;;2.20;2.10;;;;;;;16.48;66.97;99933.75;3453864;80;21107;-77
2022/05/30 11:59:25;;;;;;;2.35;2.15;;;;;;;16.25;67.59;99938.13;3494415;80;21480;-77
2022/05/30 12:04:30;;;;;;;1.87;1.77;;;;;;;16.16;67.80;99933.91;3340314;82;21540;-80
2022/05/30 12:09:45;;;;;;;2.47;2.30;;;;;;;16.00;67.73;99942.05;3370605;82;21030;-79
2022/05/30 12:15:03;;;;;;;3.15;1.98;;;;;;;15.74;67.93;99941.59;3386689;82;21543;-78
2022/05/30 12:25:58;;;;;;;3.33;3.00;;;;;;;14.95;68.60;99955.87;3414438;81;20984;-80
2022/05/30 12:30:58;;;;;;;3.87;3.58;;;;;;;14.47;69.89;99969.48;3342051;82;21074;-78
2022/05/30 12:36:10;;;;;;;3.92;3.60;;;;;;;14.23;70.58;99976.27;3373991;82;21070;-78
2022/05/30 12:41:35;;;;;;;3.58;3.27;;;;;;;14.02;71.25;99980.83;3431209;80;20897;-78
2022/05/30 12:46:33;;;;;;;3.27;2.75;;;;;;;14.11;72.02;99982.05;3497888;80;22002;-78
2022/05/30 12:51:39;;;;;;;3.37;3.17;;;;;;;14.58;72.23;99974.62;3457508;80;20940;-78
2022/05/30 12:56:45;;;;;;;3.35;3.05;;;;;;;15.01;71.40;99976.72;3489630;80;21082;-78
2022/05/30 13:01:53;;;;;;;4.25;2.83;;;;;;;15.24;71.22;99981.65;3473013;80;20939;-78
2022/05/30 13:07:04;;;;;;;2.65;2.40;;;;;;;15.28;70.64;99984.23;3452191;80;20956;-77
2022/05/30 13:12:06;;;;;;;2.55;2.35;;;;;;;15.28;70.68;99984.23;3495080;80;21082;-78
2022/05/30 13:17:07;;;;;;;2.55;2.30;;;;;;;15.28;70.47;99989.47;3455514;80;20951;-79
2022/05/30 13:21:59;;;;;;;3.05;2.40;;;;;;;15.40;69.78;99989.30;3446777;80;20960;-78
2022/05/30 13:26:50;;;;;;;2.67;2.47;;;;;;;15.48;69.39;99994.42;3476786;80;20985;-78
2022/05/30 13:31:41;;;;;;;2.67;2.47;;;;;;;15.38;69.56;100001.53;3489618;80;20911;-79
2022/05/30 13:36:34;;;;;;;2.80;2.60;;;;;;;15.00;69.85;100002.91;3499836;80;20937;-78
2022/05/30 13:41:38;;;;;;;2.75;2.55;;;;;;;14.51;70.08;100019.16;3453019;80;20963;-80
2022/05/30 13:46:41;;;;;;;3.60;3.30;;;;;;;14.03;69.37;100032.20;3408366;80;20963;-79
2022/05/30 13:51:36;;;;;;;4.10;3.67;;;;;;;13.48;70.18;100029.53;3496322;80;21024;-79
2022/05/30 13:56:41;;;;;;;6.15;4.10;;;;;;;13.24;70.98;100045.32;3504445;80;20904;-75
2022/05/30 14:01:36;;;;;;;4.90;4.50;;;;;;;13.04;71.50;100055.81;3463137;80;21500;-78
2022/05/30 14:06:36;;;;;;;4.87;4.47;;;;;;;12.90;72.35;100055.44;3501191;80;20947;-77
2022/05/30 14:11:40;;;;;;;4.17;3.87;;;;;;;12.93;72.61;100061.97;3455837;81;20921;-78
2022/05/30 14:16:57;;;;;;;6.03;5.47;;;;;;;12.91;73.38;100067.63;3449285;80;20909;-77
2022/05/30 14:21:54;;;;;;;6.13;5.53;;;;;;;12.90;73.74;100072.84;3494312;80;21530;-78
2022/05/30 14:26:45;;;;;;;8.20;5.50;;;;;;;12.99;73.81;100070.65;3501888;80;21754;-79
2022/05/30 14:31:37;;;;;;;8.68;6.12;;;;;;;13.15;74.28;100077.09;3427861;80;20944;-77
2022/05/30 14:36:47;;;;;;;3.92;3.40;;;;;;;13.33;73.92;100070.97;3466676;80;20868;-79
2022/05/30 14:41:38;;;;;;;3.83;3.45;;;;;;;13.42;72.70;100065.28;3449427;80;20963;-78
2022/05/30 14:46:39;;;;;;;4.22;3.87;;;;;;;13.46;72.99;100064.37;3486736;80;20972;-75
2022/05/30 14:51:42;;;;;;;5.20;4.10;;;;;;;13.62;73.45;100062.55;3470802;81;21867;-77
2022/05/30 14:56:34;;;;;;;5.12;3.98;;;;;;;13.97;72.90;100063.63;3460132;80;20936;-77
2022/05/30 15:01:25;;;;;;;4.15;3.75;;;;;;;14.19;72.93;100066.08;3478478;80;20981;-78
2022/05/30 15:06:24;;;;;;;7.05;4.25;;;;;;;14.36;72.73;100070.73;3449949;80;21420;-77
2022/05/30 15:11:24;;;;;;;4.30;3.40;;;;;;;14.50;72.05;100065.34;3509176;80;20920;-77
2022/05/30 15:16:15;;;;;;;5.55;4.87;;;;;;;14.46;71.14;100064.52;3444111;80;21077;-77
2022/05/30 15:21:09;;;;;;;5.17;3.95;;;;;;;14.30;70.92;100067.70;3444757;80;21085;-75
2022/05/30 15:26:00;;;;;;;5.22;3.90;;;;;;;14.08;70.96;100072.70;3398343;80;21552;-79
2022/05/30 15:30:51;;;;;;;4.78;4.37;;;;;;;13.95;71.47;100083.69;3434016;80;20957;-75
2022/05/30 15:35:42;;;;;;;4.62;3.58;;;;;;;13.89;71.47;100087.18;3480754;80;20951;-78
2022/05/30 15:40:36;;;;;;;5.08;4.08;;;;;;;13.75;71.28;100094.69;3469767;80;21998;-78
2022/05/30 15:45:31;;;;;;;8.35;5.58;;;;;;;13.69;71.69;100089.92;3482550;80;20928;-77
2022/05/30 15:50:22;;;;;;;6.33;5.00;;;;;;;13.73;72.01;100098.20;3432123;80;20954;-79
2022/05/30 16:00:25;;;;;;;3.98;3.67;;;;;;;13.70;72.10;100100.82;3478877;80;20988;-77
2022/05/30 16:05:17;;;;;;;5.40;3.90;;;;;;;13.58;72.17;100108.72;3489497;80;21433;-77
2022/05/30 16:10:10;;;;;;;4.58;3.90;;;;;;;13.56;71.88;100118.31;3497667;80;21098;-77
2022/05/30 16:15:04;;;;;;;3.30;3.00;;;;;;;13.63;72.32;100123.94;3483551;80;20901;-77
2022/05/30 16:19:55;;;;;;;4.70;2.77;;;;;;;14.34;71.17;100124.77;3489629;80;21015;-77
2022/05/30 16:24:46;;;;;;;3.98;2.95;;;;;;;14.67;69.56;100122.80;3469045;80;21513;-78
2022/05/30 16:29:37;;;;;;;3.10;2.50;;;;;;;14.40;69.56;100136.50;3442964;80;21003;-77
2022/05/30 16:34:28;;;;;;;4.50;3.20;;;;;;;13.95;69.94;100138.98;3479445;80;21039;-78
2022/05/30 16:39:19;;;;;;;4.03;2.95;;;;;;;13.53;70.35;100146.59;3506786;80;20901;-77
2022/05/30 16:44:18;;;;;;;3.55;3.25;;;;;;;13.31;71.03;100158.87;3496847;80;20920;-77
2022/05/30 16:49:14;;;;;;;4.05;3.65;;;;;;;13.08;71.23;100160.66;3498012;80;21137;-77
2022/05/30 16:54:06;;;;;;;3.22;2.98;;;;;;;12.95;71.65;100168.50;3480168;80;21264;-77
2022/05/30 16:58:57;;;;;;;3.27;2.98;;;;;;;12.90;71.97;100170.24;3467853;80;20960;-77
2022/05/30 17:03:48;;;;;;;3.40;3.05;;;;;;;12.86;72.22;100182.87;3443722;80;20975;-77
2022/05/30 17:08:40;;;;;;;4.22;3.35;;;;;;;12.84;72.21;100182.41;3478543;80;20961;-78
2022/05/30 17:13:33;;;;;;;4.58;3.47;;;;;;;12.96;72.28;100178.05;3442868;80;20935;-78
2022/05/30 17:18:25;;;;;;;7.03;3.72;;;;;;;13.08;72.38;100168.48;3454480;80;21087;-77
2022/05/30 17:23:20;;;;;;;4.17;2.92;;;;;;;13.29;72.19;100174.95;3484964;79;21494;-78
2022/05/30 17:33:21;;;;;;;4.45;3.20;;;;;;;13.28;71.67;100172.34;3445619;80;20972;-77
2022/05/30 17:38:13;;;;;;;4.25;2.98;;;;;;;13.26;72.06;100177.56;3414623;80;20964;-77
2022/05/30 17:43:09;;;;;;;5.95;3.02;;;;;;;13.27;71.75;100188.86;3492930;80;21288;-77
2022/05/30 17:48:12;;;;;;;5.90;4.12;;;;;;;13.19;71.65;100187.59;3467154;80;20948;-78
2022/05/30 17:53:04;;;;;;;4.80;3.62;;;;;;;13.14;71.69;100188.03;3472319;80;20998;-78
2022/05/30 17:57:56;;;;;;;4.35;3.95;;;;;;;13.01;71.48;100196.77;3452267;80;20912;-77
2022/05/30 18:02:47;;;;;;;4.90;4.03;;;;;;;12.83;71.93;100199.82;3495268;80;21683;-77
2022/05/30 18:07:58;;;;;;;5.92;4.70;;;;;;;12.66;72.49;100196.34;3512077;80;21089;-77
2022/05/30 18:13:16;;;;;;;6.90;4.58;;;;;;;12.46;72.85;100208.92;3487563;80;20979;-77
2022/05/30 18:23:53;;;;;;;13.80;6.97;;;;;;;11.96;73.52;100219.67;3527250;80;20417;-77
2022/05/30 18:28:44;;;;;;;8.48;6.37;;;;;;;11.70;73.74;100236.48;3483696;80;22273;-78
2022/05/30 18:33:41;;;;;;;6.92;5.35;;;;;;;11.52;74.11;100238.97;3462326;80;22405;-78
2022/05/30 18:39:05;;;;;;;5.85;4.67;;;;;;;11.36;74.19;100245.41;3464735;80;20951;-78
2022/05/30 18:44:20;;;;;;;4.80;3.92;;;;;;;11.18;74.42;100254.41;3489687;80;20952;-78
2022/05/30 18:49:22;;;;;;;5.08;4.37;;;;;;;11.01;74.48;100262.93;3507395;80;20931;-77
2022/05/30 18:54:14;;;;;;;4.25;3.33;;;;;;;10.72;75.01;100272.23;3503704;80;20931;-78
2022/05/30 18:59:22;;;;;;;5.47;4.30;;;;;;;10.72;75.01;100272.23;3440277;80;22531;-78
2022/05/30 19:04:14;;;;;;;6.70;4.45;;;;;;;10.59;74.89;100279.91;3475652;80;20951;-77
2022/05/30 19:09:06;;;;;;;7.25;4.25;;;;;;;10.30;75.10;100273.95;3493893;80;20988;-78
2022/05/30 19:14:26;;;;;;;5.37;4.80;;;;;;;10.30;75.10;100273.95;3394508;82;20969;-77
2022/05/30 19:19:22;;;;;;;6.75;4.85;;;;;;;10.23;75.09;100287.73;3409208;82;21494;-77
2022/05/30 19:24:14;;;;;;;5.93;5.37;;;;;;;10.11;75.02;100290.18;3452808;81;21464;-77
2022/05/30 19:29:05;;;;;;;6.10;5.50;;;;;;;10.03;75.55;100290.50;3445796;80;21491;-77
2022/05/30 19:33:57;;;;;;;6.97;5.00;;;;;;;9.97;75.58;100293.89;3505415;80;21011;-77
2022/05/30 19:38:48;;;;;;;5.47;5.00;;;;;;;9.91;75.81;100295.13;3461707;80;21026;-78
2022/05/30 19:43:41;;;;;;;5.22;4.72;;;;;;;9.83;75.45;100301.50;3424200;80;21082;-77
2022/05/30 19:48:32;;;;;;;4.47;4.08;;;;;;;9.68;75.74;100304.77;3467287;80;21624;-77
2022/05/30 19:53:23;;;;;;;5.12;4.67;;;;;;;9.68;75.74;100304.77;3464796;80;21533;-77
2022/05/30 19:58:16;;;;;;;7.58;5.55;;;;;;;9.57;75.60;100312.84;3416624;80;21545;-77
2022/05/30 20:03:07;;;;;;;6.05;5.53;;;;;;;9.48;75.66;100329.14;3454396;80;20931;-79
2022/05/30 20:07:59;;;;;;;6.62;4.85;;;;;;;9.48;75.66;100329.14;3454332;80;20908;-77
2022/05/30 20:12:50;;;;;;;6.00;5.50;;;;;;;9.44;75.92;100341.59;3492351;80;20968;-77
2022/05/30 20:17:43;;;;;;;6.70;6.10;;;;;;;9.37;76.06;100342.35;3476133;80;21006;-77
2022/05/30 20:22:34;;;;;;;10.28;5.65;;;;;;;9.37;76.06;100342.35;3420402;80;20983;-77
2022/05/30 20:27:26;;;;;;;7.20;6.40;;;;;;;9.34;76.26;100344.92;3493091;80;21058;-77
2022/05/30 20:32:18;;;;;;;6.53;5.92;;;;;;;9.28;76.29;100342.21;3432950;80;21012;-77
2022/05/30 20:37:12;;;;;;;5.92;5.20;;;;;;;9.21;76.29;100334.77;3461630;80;21528;-77
2022/05/30 20:47:16;;;;;;;8.20;6.35;;;;;;;9.04;76.15;100353.92;3452909;80;20955;-77
2022/05/30 20:52:07;;;;;;;6.95;6.22;;;;;;;8.95;76.24;100345.99;3462473;80;20987;-77
2022/05/30 20:56:59;;;;;;;7.85;7.15;;;;;;;8.87;76.03;100341.08;3448457;80;21676;-77
2022/05/30 21:01:50;;;;;;;6.08;5.58;;;;;;;8.82;76.44;100344.91;3434756;80;22427;-77
2022/05/30 21:06:42;;;;;;;6.35;5.75;;;;;;;8.74;75.87;100340.86;3450677;80;21002;-77
2022/05/30 21:11:33;;;;;;;7.03;6.28;;;;;;;8.60;75.93;100353.98;3433744;80;20951;-77
2022/05/30 21:16:32;;;;;;;6.45;5.92;;;;;;;8.52;76.16;100363.34;3443114;80;20928;-77
2022/05/30 21:21:24;;;;;;;7.20;6.15;;;;;;;8.48;76.26;100364.13;3465969;80;21002;-77
2022/05/30 21:26:16;;;;;;;7.00;6.35;;;;;;;8.46;76.42;100363.20;3412004;80;22097;-77
2022/05/30 21:31:12;;;;;;;7.97;6.90;;;;;;;8.42;76.50;100363.96;3505493;80;21035;-77
2022/05/30 21:36:09;;;;;;;8.53;6.90;;;;;;;8.38;76.33;100373.39;3504861;80;20987;-77
2022/05/30 21:41:00;;;;;;;7.37;6.42;;;;;;;8.30;76.39;100383.60;3453952;80;20967;-77
2022/05/30 21:45:52;;;;;;;6.92;6.17;;;;;;;8.23;76.11;100378.23;3464549;80;21501;-77
2022/05/30 21:50:43;;;;;;;6.72;5.87;;;;;;;8.08;76.03;100390.02;3438585;80;21098;-77
2022/05/30 21:55:35;;;;;;;8.23;5.60;;;;;;;8.02;76.37;100393.34;3440315;80;28646;-77
2022/05/30 22:00:43;;;;;;;8.18;6.25;;;;;;;7.96;76.15;100403.59;3472505;79;20995;-77
2022/05/30 22:05:37;;;;;;;7.30;6.33;;;;;;;7.84;76.17;100391.66;3456709;80;20901;-77
2022/05/30 22:10:28;;;;;;;7.00;6.17;;;;;;;7.79;76.48;100391.96;3442184;80;20967;-77
2022/05/30 22:15:20;;;;;;;7.20;6.50;;;;;;;7.81;76.64;100395.45;3433615;81;22242;-77
2022/05/30 22:20:20;;;;;;;7.00;6.33;;;;;;;7.77;76.43;100388.47;3398732;79;21050;-77
2022/05/30 22:25:15;;;;;;;7.62;6.30;;;;;;;7.64;76.07;100392.06;3474897;80;20963;-77
2022/05/30 22:30:10;;;;;;;8.38;7.53;;;;;;;7.58;76.24;100393.22;3467861;80;20967;-77
2022/05/30 22:35:03;;;;;;;10.00;8.48;;;;;;;7.52;76.10;100399.53;3437106;80;20889;-77
2022/05/30 22:39:54;;;;;;;8.65;7.65;;;;;;;7.43;76.33;100416.13;3491404;80;21375;-77
2022/05/30 22:44:45;;;;;;;11.38;9.53;;;;;;;7.41;76.29;100412.63;3492750;79;28733;-77
2022/05/30 22:49:36;;;;;;;10.80;9.73;;;;;;;7.35;76.29;100422.80;3459702;80;20978;-77
2022/05/30 22:54:27;;;;;;;11.25;8.95;;;;;;;7.29;76.29;100427.83;3460710;80;21027;-77
2022/05/30 22:59:18;;;;;;;11.08;9.35;;;;;;;7.21;76.62;100434.98;3406071;79;20901;-77
2022/05/30 23:04:09;;;;;;;11.43;10.25;;;;;;;7.25;77.11;100435.50;3500136;80;20959;-77
2022/05/30 23:09:01;;;;;;;13.58;9.80;;;;;;;7.25;77.08;100434.64;3440761;80;21023;-77
2022/05/30 23:13:57;;;;;;;10.75;9.65;;;;;;;7.20;77.12;100431.91;3449116;79;21411;-77
2022/05/30 23:18:49;;;;;;;11.83;10.58;;;;;;;7.21;77.16;100444.02;3472727;80;20956;-77
2022/05/30 23:23:44;;;;;;;13.38;10.88;;;;;;;7.21;77.06;100455.66;3395340;82;20955;-77
2022/05/30 23:28:37;;;;;;;11.78;10.15;;;;;;;7.13;76.84;100451.98;3373502;82;22003;-77
2022/05/30 23:33:28;;;;;;;13.43;11.85;;;;;;;7.07;76.87;100458.30;3331332;83;20913;-77
2022/05/30 23:38:19;;;;;;;13.22;11.60;;;;;;;7.08;77.34;100462.61;3474883;80;21745;-77
2022/05/30 23:48:21;;;;;;;14.60;12.68;;;;;;;7.03;76.97;100469.39;3434419;80;20916;-77
2022/05/30 23:53:15;;;;;;;12.20;11.03;;;;;;;6.98;77.21;100463.22;3478880;80;21624;-77
2022/05/30 23:58:06;;;;;;;14.38;11.78;;;;;;;6.92;76.90;100474.66;3475205;80;21006;-78
